Latest Weather Observations for Montague Island

IDN60801

Issued at 8:02 am EST Monday 3 August 2015 (issued every 30 minutes, with the page automatically refreshed every 10 minutes)

About weather observations | Map of weather stations | Latest weather observations for NSW | Other Formats
Station Details ID: 069017 Name: MONTAGUE ISLAND LIGHTHOUSE Lat: -36.25 Lon: 150.23 Height: 52.0 m
Data from the previous 72 hours. | See also: Recent months at Montague Island
Date/Time
EST
Temp
°C
App
Temp
°C
Dew
Point
Rel
Hum
%
Delta-T
°C
Wind Press
QNH
hPa
Press
MSL
hPa
Rain
since 9 am
mm
Dir
 
Spd
km/h
Gust
km/h
Spd
kts
Gust
kts
03/08:00am 12.6 9.6 6.2 65 3.0 NNW 11 13 6 7 1010.1 1010.1 0.0
03/07:30am 12.5 7.8 6.1 65 3.0 NW 20 24 11 13 1009.3 1009.3 0.0
03/07:00am 12.6 7.4 3.6 54 4.0 NW 20 28 11 15 1009.2 1009.2 0.0
03/06:30am 12.5 6.9 3.7 55 4.0 NW 22 35 12 19 1008.6 1008.6 0.0
03/06:00am 12.4 6.7 5.1 61 3.4 NNW 24 30 13 16 1008.3 1008.3 0.0
03/05:30am 12.4 6.0 5.3 62 3.3 NNW 28 39 15 21 1008.0 1008.0 0.0
03/05:00am 12.4 5.2 4.9 60 3.5 NNW 32 39 17 21 1007.6 1007.6 0.0
03/04:30am 12.6 5.6 4.3 57 3.8 NNW 30 39 16 21 1007.7 1007.7 0.0
03/04:00am 12.1 4.5 3.9 57 3.7 N 33 41 18 22 1007.7 1007.7 0.0
03/03:30am 12.0 3.9 3.3 55 3.9 N 35 44 19 24 1007.8 1007.8 0.0
03/03:00am 11.8 4.3 4.3 60 3.4 N 33 41 18 22 1008.4 1008.4 0.0
03/02:30am 11.6 3.8 3.1 56 3.7 NNW 33 50 18 27 1008.6 1008.6 0.0
03/02:00am 10.9 4.3 4.1 63 3.0 NNW 28 39 15 21 1009.1 1009.1 0.0
03/01:30am 11.0 4.1 2.8 57 3.6 NNW 28 35 15 19 1009.9 1009.9 0.0
03/01:00am 11.4 6.2 3.4 58 3.5 N 20 28 11 15 1010.2 1010.2 0.0
03/12:30am 11.7 7.5 -0.8 42 5.0 NW 11 17 6 9 1011.1 1011.1 0.0
03/12:00am 11.9 6.4 0.4 45 4.8 WNW 19 24 10 13 1011.7 1011.7 0.0
 
Date/Time
EST
Temp
°C
App
Temp
°C
Dew
Point
Rel
Hum
%
Delta-T
°C
Wind Press
QNH
hPa
Press
MSL
hPa
Rain
since 9 am
mm
Dir
 
Spd
km/h
Gust
km/h
Spd
kts
Gust
kts
02/11:30pm 11.8 5.6 -0.4 43 5.0 WNW 22 30 12 16 1011.8 1011.8 0.0
02/11:00pm 12.2 6.9 -0.6 41 5.2 W 17 20 9 11 1011.9 1011.9 0.0
02/10:30pm 12.7 5.2 -1.6 37 5.7 W 28 43 15 23 1011.6 1011.6 0.0
02/10:00pm 12.5 6.0 0.6 44 5.0 W 24 32 13 17 1011.4 1011.4 0.0
02/09:30pm 13.2 5.9 2.7 49 4.6 W 30 43 16 23 1011.4 1011.4 0.0
02/09:18pm 12.5 6.5 7.0 69 2.7 W 28 35 15 19 1011.3 1011.3 0.0
02/09:00pm 12.0 10.5 10.4 90 0.8 SSW 9 13 5 7 1011.3 1011.3 0.0
02/08:30pm 12.4 10.5 10.5 88 1.0 SW 11 13 6 7 1011.2 1011.2 0.0
02/08:00pm 12.6 12.4 10.5 87 1.1 S 2 2 1 1 1010.7 1010.7 0.0
02/07:30pm 13.1 12.7 11.2 88 1.0 ENE 4 7 2 4 1010.4 1010.4 0.0
02/07:00pm 12.9 10.8 11.1 89 0.9 S 13 17 7 9 1010.1 1010.1 0.0
02/06:30pm 12.9 10.4 11.1 89 0.9 SSE 15 19 8 10 1010.0 1010.0 0.0
02/06:00pm 13.2 11.2 11.4 89 1.0 SE 13 17 7 9 1009.6 1009.6 0.0
02/05:30pm 13.1 10.6 11.2 88 1.0 ESE 15 19 8 10 1008.9 1008.9 0.0
02/05:00pm 12.9 9.9 10.6 86 1.2 ESE 17 20 9 11 1008.2 1008.2 0.0
02/04:30pm 13.0 10.4 10.7 86 1.2 E 15 17 8 9 1007.9 1007.9 0.0
02/04:00pm 13.1 10.1 10.6 85 1.3 SE 17 19 9 10 1007.8 1007.8 0.0
02/03:30pm 13.6 10.8 11.3 86 1.2 SSE 17 24 9 13 1007.5 1007.5 0.0
02/03:00pm 13.6 11.1 11.0 84 1.4 S 15 20 8 11 1007.6 1007.6 0.0
02/02:30pm 13.8 8.1 11.0 83 1.5 S 32 35 17 19 1007.1 1007.1 0.0
02/02:00pm 13.6 7.4 11.5 87 1.1 S 35 43 19 23 1006.5 1006.5 0.0
02/01:30pm 14.2 8.5 11.7 85 1.3 S 33 41 18 22 1007.1 1007.1 0.0
02/01:00pm 14.7 9.2 11.8 83 1.6 S 32 43 17 23 1006.7 1006.7 0.0
02/12:53pm 14.9 9.6 11.3 79 1.9 SSW 30 43 16 23 1006.8 1006.8 0.0
02/12:30pm 18.0 14.1 10.9 63 3.8 WNW 22 44 12 24 1007.0 1007.0 0.0
02/12:29pm 18.1 13.8 10.7 62 4.0 NW 24 44 13 24 1007.0 1007.0 0.0
02/12:00pm 18.0 10.8 10.6 62 4.0 NNW 39 48 21 26 1006.8 1006.8 0.0
02/11:30am 17.6 10.0 10.5 63 3.8 NNW 41 50 22 27 1007.3 1007.3 0.0
02/11:00am 17.4 9.7 10.3 63 3.8 NNW 41 52 22 28 1007.6 1007.6 0.0
02/10:30am 17.4 9.1 10.1 62 3.9 NNW 44 57 24 31 1008.6 1008.6 0.0
02/10:10am 17.0 10.7 11.1 68 3.2 NNW 35 56 19 30 1009.2 1009.2 0.0
02/10:00am 17.0 9.9 10.8 67 3.3 NNW 39 50 21 27 1009.2 1009.2 0.0
02/09:30am 15.0 10.9 11.4 79 1.9 N 24 35 13 19 1009.4 1009.4 0.0
02/09:00am 14.8 8.4 10.8 77 2.1 NNE 35 46 19 25 1009.5 1009.5 0.0
02/08:30am 14.6 7.9 11.0 79 1.9 N 37 48 20 26 1010.1 1010.1 0.0
02/08:00am 14.4 7.4 11.4 82 1.6 N 39 54 21 29 1010.6 1010.6 0.0
02/07:53am 14.5 7.1 11.3 81 1.7 N 41 61 22 33 1010.5 1010.5 0.0
02/07:30am 14.4 6.9 11.0 80 1.8 N 41 56 22 30 1010.7 1010.7 0.0
02/07:00am 14.4 7.4 11.2 81 1.7 N 39 52 21 28 1010.8 1010.8 0.0
02/06:30am 14.0 10.4 12.0 88 1.1 N 22 35 12 19 1011.4 1011.4 0.0
02/06:00am 13.0 9.8 11.1 88 1.0 N 19 28 10 15 1012.1 1012.1 0.0
02/05:30am 13.1 9.9 11.3 89 1.0 N 19 28 10 15 1012.2 1012.2 0.0
02/05:00am 13.7 11.1 12.1 90 0.9 ENE 17 19 9 10 1012.6 1012.6 0.0
02/04:30am 12.8 12.5 11.4 91 0.7 N 4 9 2 5 1013.2 1013.1 0.0
02/04:00am 12.0 11.1 10.6 91 0.7 SSE 6 9 3 5 1013.8 1013.8 0.0
02/03:30am 11.8 10.6 10.2 90 0.8 E 7 11 4 6 1014.4 1014.4 0.0
02/03:00am 11.6 10.9 10.0 90 0.8 NE 4 9 2 5 1014.8 1014.8 0.0
02/02:30am 11.5 10.4 9.9 90 0.8 E 6 9 3 5 1015.2 1015.2 0.0
02/02:00am 11.3 10.0 9.9 91 0.7 SE 7 11 4 6 1015.5 1015.5 0.0
02/01:30am 11.2 10.1 9.8 91 0.7 SE 6 9 3 5 1016.2 1016.2 0.0
02/01:00am 11.1 9.7 9.7 91 0.7 SE 7 9 4 5 1016.3 1016.3 0.0
02/12:30am 10.9 9.7 9.5 91 0.7 SSE 6 9 3 5 1016.3 1016.3 0.0
02/12:00am 10.9 9.5 9.5 91 0.7 SE 7 15 4 8 1016.3 1016.3 0.0
 
Date/Time
EST
Temp
°C
App
Temp
°C
Dew
Point
Rel
Hum
%
Delta-T
°C
Wind Press
QNH
hPa
Press
MSL
hPa
Rain
since 9 am
mm
Dir
 
Spd
km/h
Gust
km/h
Spd
kts
Gust
kts
01/11:30pm 10.8 8.3 9.6 92 0.6 SE 13 15 7 8 1016.3 1016.3 0.0
01/11:00pm 10.8 8.3 9.6 92 0.6 SSE 13 17 7 9 1016.7 1016.7 0.0
01/10:30pm 10.9 7.5 9.3 90 0.8 SSE 17 20 9 11 1016.6 1016.6 0.0
01/10:00pm 11.3 7.5 9.0 86 1.1 S 19 24 10 13 1016.7 1016.7 0.0
01/09:30pm 11.7 7.2 8.6 81 1.5 S 22 28 12 15 1016.9 1016.9 0.0
01/09:00pm 11.7 6.5 8.9 83 1.4 S 26 35 14 19 1016.4 1016.4 0.0
01/08:30pm 11.9 5.5 8.7 81 1.6 S 32 39 17 21 1016.4 1016.4 0.0
01/08:00pm 12.0 5.5 8.8 81 1.6 S 33 43 18 23 1015.9 1015.9 0.0
01/07:30pm 12.3 5.2 9.5 83 1.4 S 37 43 20 23 1015.2 1015.2 0.0
01/07:00pm 12.3 4.0 9.3 82 1.5 S 43 48 23 26 1014.8 1014.8 0.0
01/06:30pm 12.6 4.6 10.3 86 1.2 S 43 54 23 29 1014.2 1014.2 0.0
01/06:00pm 12.9 4.9 11.0 88 1.0 SSW 44 54 24 29 1014.0 1014.0 0.0
01/05:30pm 13.4 5.3 10.8 84 1.4 SSW 44 57 24 31 1013.7 1013.7 0.0
01/05:00pm 14.1 4.3 11.6 85 1.3 S 54 67 29 36 1011.9 1011.9 0.0
01/04:49pm 15.2 7.4 11.8 80 1.8 SSW 44 54 24 29 1011.2 1011.2 0.0
01/04:47pm 15.1 7.2 11.5 79 1.9 SW 44 54 24 29 1011.2 1011.2 0.0
01/04:33pm 17.4 12.3 10.5 64 3.7 W 28 48 15 26 1010.9 1010.9 0.0
01/04:30pm 17.3 12.8 10.2 63 3.8 WNW 24 30 13 16 1010.6 1010.6 0.0
01/04:00pm 17.8 15.2 10.7 63 3.8 NNW 15 24 8 13 1010.3 1010.3 0.0
01/03:30pm 17.0 13.9 11.7 71 2.9 NNE 19 26 10 14 1010.0 1010.0 0.0
01/03:00pm 17.4 10.4 9.8 61 4.0 NNE 37 44 20 24 1010.3 1010.3 0.0
01/02:30pm 16.8 10.1 11.1 69 3.1 NNE 37 43 20 23 1010.1 1010.1 0.0
01/02:00pm 16.6 9.4 10.7 68 3.2 NNE 39 50 21 27 1009.7 1009.7 0.0
01/01:30pm 16.3 9.1 10.6 69 3.0 NNE 39 46 21 25 1009.9 1009.9 0.0
01/01:00pm 16.5 8.1 9.7 64 3.6 NNE 44 56 24 30 1009.9 1009.9 0.0
01/12:30pm 16.9 9.9 9.8 63 3.7 N 37 50 20 27 1010.4 1010.4 0.0
01/12:26pm 16.8 9.7 9.5 62 3.8 N 37 57 20 31 1010.4 1010.4 0.0
01/12:00pm 16.6 8.1 8.6 59 4.1 N 43 54 23 29 1010.7 1010.7 0.0
01/11:30am 16.3 6.4 8.3 59 4.1 N 50 61 27 33 1010.7 1010.7 0.0
01/11:00am 15.5 5.2 8.3 62 3.6 NNW 52 65 28 35 1011.0 1011.0 0.0
01/10:30am 15.4 5.4 7.7 60 3.8 NNW 50 65 27 35 1011.2 1011.2 0.0
01/10:22am 15.2 6.9 7.7 61 3.7 NNW 41 61 22 33 1011.2 1011.2 0.0
01/10:00am 15.2 10.0 8.9 66 3.2 NNW 26 41 14 22 1011.8 1011.8 0.0
01/09:30am 15.0 7.8 7.8 62 3.6 NNW 35 48 19 26 1012.0 1012.1 0.0
01/09:00am 14.9 6.4 7.0 59 3.9 NNW 41 54 22 29 1012.3 1012.4 0.0
01/08:30am 14.9 5.9 7.2 60 3.8 NNW 44 57 24 31 1012.2 1012.3 0.0
01/08:00am 14.9 6.8 7.0 59 3.9 N 39 52 21 28 1012.5 1012.6 0.0
01/07:30am 14.9 7.8 7.9 63 3.5 N 35 44 19 24 1012.9 1013.0 0.0
01/07:00am 14.7 9.0 8.4 66 3.2 N 28 44 15 24 1012.8 1012.9 0.0
01/06:30am 14.0 9.0 8.2 68 2.9 N 24 30 13 16 1012.6 1012.7 0.0
01/06:00am 13.5 7.6 7.5 67 2.9 NW 28 35 15 19 1012.2 1012.3 0.0
01/05:30am 12.4 8.0 6.7 68 2.7 NW 19 26 10 14 1012.3 1012.4 0.0
01/05:00am 12.6 8.2 6.4 66 3.0 NW 19 24 10 13 1012.2 1012.3 0.0
01/04:30am 14.3 7.5 7.1 62 3.5 N 32 39 17 21 1012.2 1012.3 0.0
01/04:00am 14.2 7.3 6.3 59 3.8 N 32 43 17 23 1012.8 1012.9 0.0
01/03:30am 14.0 6.9 5.6 57 4.0 N 32 44 17 24 1013.4 1013.4 0.0
01/03:00am 14.0 5.9 6.8 62 3.5 N 39 46 21 25 1013.8 1013.8 0.0
01/02:30am 13.8 5.5 6.2 60 3.6 N 39 48 21 26 1014.3 1014.3 0.0
01/02:00am 13.4 6.1 7.0 65 3.1 NNW 35 46 19 25 1015.0 1015.0 0.0
01/01:30am 13.1 5.9 7.5 69 2.7 N 35 44 19 24 1015.7 1015.7 0.0
01/01:00am 13.1 5.5 7.5 69 2.7 NNW 37 46 20 25 1015.7 1015.7 0.0
01/12:30am 12.9 5.0 7.8 71 2.5 N 39 48 21 26 1016.0 1016.0 0.0
01/12:00am 12.7 4.6 8.6 76 2.0 N 41 54 22 29 1016.4 1016.4 0.0
 
Date/Time
EST
Temp
°C
App
Temp
°C
Dew
Point
Rel
Hum
%
Delta-T
°C
Wind Press
QNH
hPa
Press
MSL
hPa
Rain
since 9 am
mm
Dir
 
Spd
km/h
Gust
km/h
Spd
kts
Gust
kts
31/11:30pm 12.7 6.0 9.7 82 1.5 N 35 46 19 25 1017.2 1017.2 0.0
31/11:00pm 12.9 6.3 10.1 83 1.4 N 35 44 19 24 1017.9 1017.9 0.0
31/10:30pm 13.1 6.7 10.8 86 1.2 N 35 46 19 25 1018.4 1018.4 0.0
31/10:00pm 13.3 8.7 11.0 86 1.2 N 26 33 14 18 1018.6 1018.6 0.0
31/09:30pm 14.0 7.5 10.2 78 2.0 NNE 35 43 19 23 1019.1 1019.1 0.0
31/09:00pm 13.9 7.8 9.7 76 2.2 N 32 39 17 21 1019.5 1019.5 0.0
31/08:30pm 13.8 6.9 9.0 73 2.4 NNE 35 43 19 23 1019.4 1019.4 0.0
31/08:00pm 13.7 7.3 9.4 75 2.2 NNE 33 44 18 24 1019.3 1019.3 0.0
31/07:30pm 13.6 7.2 8.7 72 2.5 NNE 32 37 17 20 1019.3 1019.3 0.0
31/07:00pm 13.5 7.7 8.1 70 2.7 NE 28 33 15 18 1019.5 1019.5 0.0
31/06:30pm 13.4 8.7 7.6 68 2.9 NNE 22 28 12 15 1019.7 1019.7 0.0
31/06:00pm 13.3 8.9 7.5 68 2.8 NE 20 26 11 14 1019.5 1019.5 0.0
31/05:30pm 13.3 9.4 7.3 67 2.9 NE 17 24 9 13 1019.4 1019.4 0.0
31/05:00pm 13.2 8.8 6.5 64 3.2 NE 19 24 10 13 1019.3 1019.3 0.0
31/04:30pm 13.1 9.4 6.5 64 3.2 NE 15 17 8 9 1019.3 1019.3 0.0
31/04:00pm 13.1 8.9 5.8 61 3.4 ENE 17 20 9 11 1019.1 1019.1 0.0
31/03:30pm 13.3 9.5 5.9 61 3.5 ENE 15 19 8 10 1019.1 1019.1 0.0
31/03:00pm 13.4 10.0 5.8 60 3.6 E 13 19 7 10 1019.2 1019.2 0.0
31/02:30pm 13.1 9.0 6.2 63 3.3 ESE 17 22 9 12 1019.0 1019.0 0.0
31/02:00pm 13.2 9.1 6.1 62 3.4 ESE 17 22 9 12 1019.2 1019.2 0.0
31/01:30pm 13.4 9.3 6.3 62 3.4 ESE 17 20 9 11 1019.3 1019.3 0.0
31/01:00pm 13.7 9.3 6.6 62 3.4 SSE 19 20 10 11 1019.6 1019.6 0.0
31/12:30pm 13.4 8.8 5.8 60 3.6 SSE 19 24 10 13 1019.9 1019.9 0.0
31/12:00pm 13.5 9.0 5.9 60 3.6 S 19 26 10 14 1020.2 1020.2 0.0
31/11:30am 14.0 9.6 6.6 61 3.6 S 19 26 10 14 1020.6 1020.6 0.0
31/11:00am 14.0 9.5 6.8 62 3.5 S 20 28 11 15 1020.8 1020.8 0.0
31/10:30am 13.5 9.2 6.8 64 3.2 SSW 19 26 10 14 1020.7 1020.7 0.0
31/10:00am 13.3 8.1 7.3 67 2.9 S 24 30 13 16 1020.5 1020.5 0.0
31/09:30am 13.3 7.2 6.6 64 3.2 S 28 35 15 19 1020.2 1020.2 0.0
31/09:00am 13.3 7.3 6.9 65 3.1 S 28 33 15 18 1020.2 1020.2 0.0
31/08:30am 13.1 7.2 7.3 68 2.8 SSE 28 35 15 19 1019.9 1019.9 0.0

Other Formats:

Comma delimited format used in spreadsheet applications
http://www.bom.gov.au/fwo/IDN60801/IDN60801.94939.axf

JavaScript Object Notation format (JSON) in row-major order
http://www.bom.gov.au/fwo/IDN60801/IDN60801.94939.json